Terminal Aerodrome Forecast
Issued by NWS Newport/Morehead City, NC

Home | Current Version | Previous Version | Graphics & Text | Print | Product List | Glossary On
Versions: 1 2 3 4 5 6 7 8 9 10 11 12 13 14 15 16
759
FTUS42 KMHX 091736
TAFEWN
TAF
KEWN 091736Z 0918/1018 33010KT 3SM -DZ BR OVC007
     FM100000 30006KT 5SM -DZ BR OVC008
     FM100400 28006KT 5SM -DZ BR SCT009 OVC015
     FM100600 28007KT P6SM BKN015
     FM100900 29009KT P6SM SKC=

USA.gov is the U.S. government's official web portal to all federal, state and local government web resources and services.